Time;durP1;ratioP1;P1;durP2;ratioP2;P2;SDS_P1;SDS_P2;PMS_P1;PMS_P2;Temp;Humidity;BMP_temperature;BMP_pressure;BME280_temperature;BME280_humidity;BME280_pressure;Samples;Min_cycle;Max_cycle;Signal;HPM_P1;HPM_P2
2021/03/31 00:02:09;;;;;;;;;;;;;;;3.13;73.58;102715.64;1902552;74;22113;-75
2021/03/31 00:04:39;;;;;;;;;;;;;;;3.09;73.86;102716.11;1901848;75;20602;-75
2021/03/31 00:07:07;;;;;;;;;;;;;;;3.06;74.06;102711.41;1902142;74;20276;-75
2021/03/31 00:09:38;;;;;;;;;;;;;;;3.00;74.12;102709.69;1902213;74;20208;-75
2021/03/31 00:12:07;;;;;;;;;;;;;;;3.01;74.49;102709.27;1901950;75;20265;-75
2021/03/31 00:14:36;;;;;;;;;;;;;;;3.02;74.62;102708.00;1901850;74;20315;-75
2021/03/31 00:17:09;;;;;;;;;;;;;;;3.02;74.50;102706.72;1902179;74;20216;-75
2021/03/31 00:19:36;;;;;;;;;;;;;;;3.01;74.36;102710.12;1902267;75;20245;-75
2021/03/31 00:22:05;;;;;;;;;;;;;;;2.99;74.32;102710.57;1901754;74;20296;-75
2021/03/31 00:24:32;;;;;;;;;;;;;;;2.95;74.43;102703.73;1902133;74;20404;-75
2021/03/31 00:27:00;;;;;;;;;;;;;;;2.96;74.70;102700.32;1902038;74;21183;-75
2021/03/31 00:29:29;;;;;;;;;;;;;;;2.99;74.59;102707.14;1901849;74;20280;-75
2021/03/31 00:31:56;;;;;;;;;;;;;;;3.02;74.50;102706.72;1902338;74;20161;-75
2021/03/31 00:34:24;;;;;;;;;;;;;;;3.06;74.21;102699.87;1901699;74;20620;-75
2021/03/31 00:36:52;;;;;;;;;;;;;;;3.02;73.91;102702.01;1901645;74;20268;-75
2021/03/31 00:39:20;;;;;;;;;;;;;;;2.95;73.88;102705.02;1902050;74;21344;-75
2021/03/31 00:41:49;;;;;;;;;;;;;;;2.93;74.38;102707.16;1902286;75;20638;-75
2021/03/31 00:44:19;;;;;;;;;;;;;;;2.94;74.59;102702.44;1902058;74;20590;-75
2021/03/31 00:46:48;;;;;;;;;;;;;;;2.95;74.59;102706.72;1902052;75;20216;-75
2021/03/31 00:49:16;;;;;;;;;;;;;;;2.93;74.59;102702.89;1902299;75;20308;-75
2021/03/31 00:51:45;;;;;;;;;;;;;;;2.95;74.52;102701.59;1911828;74;20531;-74
2021/03/31 00:54:13;;;;;;;;;;;;;;;2.96;74.59;102700.74;1902633;75;20189;-74
2021/03/31 00:56:41;;;;;;;;;;;;;;;2.93;74.44;102699.05;1902067;74;20276;-75
2021/03/31 00:59:10;;;;;;;;;;;;;;;2.89;74.21;102701.61;1902063;74;20562;-75
2021/03/31 01:01:37;;;;;;;;;;;;;;;2.85;74.28;102698.19;1901833;75;20264;-75
2021/03/31 01:04:05;;;;;;;;;;;;;;;2.82;74.23;102696.91;1882344;75;21185;-75
2021/03/31 01:06:34;;;;;;;;;;;;;;;2.83;74.34;102697.34;1902507;75;20626;-75
2021/03/31 01:09:04;;;;;;;;;;;;;;;2.85;73.86;102698.19;1902289;74;20134;-74
2021/03/31 01:11:45;;;;;;;;;;;;;;;2.84;73.33;102699.48;1902354;75;20264;-74
2021/03/31 01:14:20;;;;;;;;;;;;;;;2.80;72.91;102696.08;1902397;74;20428;-75
2021/03/31 01:16:53;;;;;;;;;;;;;;;2.74;72.62;102696.52;1902378;75;22183;-75
2021/03/31 01:19:25;;;;;;;;;;;;;;;;;;1902504;75;20209;-75
2021/03/31 01:22:19;;;;;;;;;;;;;;;2.52;72.04;102710.60;1901531;75;20208;-76
2021/03/31 01:25:11;;;;;;;;;;;;;;;2.44;72.27;102705.06;1901926;74;20244;-75
2021/03/31 01:27:55;;;;;;;;;;;;;;;2.39;72.55;102701.23;1902232;74;20614;-75
2021/03/31 01:30:49;;;;;;;;;;;;;;;2.40;72.73;102698.22;1903231;74;21158;-75
2021/03/31 01:33:35;;;;;;;;;;;;;;;2.42;72.83;102697.39;1895939;74;21271;-75
2021/03/31 01:36:03;;;;;;;;;;;;;;;2.42;73.00;102696.53;1902713;74;20256;-75
2021/03/31 01:38:31;;;;;;;;;;;;;;;2.42;73.17;102698.67;1903245;75;20287;-75
2021/03/31 01:40:59;;;;;;;;;;;;;;;2.41;72.81;102701.22;1903263;74;20507;-75
2021/03/31 01:43:26;;;;;;;;;;;;;;;2.35;72.70;102694.81;1917613;74;21183;-74
2021/03/31 01:45:56;;;;;;;;;;;;;;;2.29;72.80;102699.94;1902987;75;20177;-75
2021/03/31 01:48:30;;;;;;;;;;;;;;;2.25;73.06;102693.10;1903046;75;20256;-75
2021/03/31 01:51:00;;;;;;;;;;;;;;;2.22;73.23;102696.94;1902788;74;20605;-75
2021/03/31 01:53:28;;;;;;;;;;;;;;;2.17;73.43;102698.66;1903052;74;20272;-75
2021/03/31 01:55:56;;;;;;;;;;;;;;;2.12;74.00;102693.09;1903114;74;21199;-75
2021/03/31 01:58:27;;;;;;;;;;;;;;;2.11;74.18;102700.77;1902879;75;20300;-76
2021/03/31 02:00:55;;;;;;;;;;;;;;;2.10;73.81;102702.50;1903100;74;20200;-76
2021/03/31 02:03:24;;;;;;;;;;;;;;;2.11;73.34;102695.64;1902754;74;20303;-76
2021/03/31 02:05:52;;;;;;;;;;;;;;;2.07;73.02;102702.46;1903276;74;20264;-77
2021/03/31 02:08:20;;;;;;;;;;;;;;;2.00;72.90;102699.48;1888274;75;21191;-75
2021/03/31 02:10:49;;;;;;;;;;;;;;;1.90;72.86;102696.48;1903027;74;20288;-76
2021/03/31 02:13:17;;;;;;;;;;;;;;;1.81;73.05;102692.62;1903172;75;20306;-75
2021/03/31 02:15:47;;;;;;;;;;;;;;;1.77;73.15;102699.00;1903051;74;20663;-74
2021/03/31 02:18:19;;;;;;;;;;;;;;;1.73;73.26;102698.55;1904282;74;20261;-76
2021/03/31 02:20:53;;;;;;;;;;;;;;;1.66;73.45;102696.39;1904298;74;20319;-77
2021/03/31 02:23:21;;;;;;;;;;;;;;;1.62;73.65;102690.00;1904345;74;20236;-76
2021/03/31 02:25:49;;;;;;;;;;;;;;;1.57;73.92;102692.53;1904547;74;20177;-76
2021/03/31 02:28:17;;;;;;;;;;;;;;;1.55;74.10;102691.27;1904155;74;20231;-76
2021/03/31 02:30:44;;;;;;;;;;;;;;;1.56;74.17;102692.13;1904363;75;20265;-76
2021/03/31 02:33:14;;;;;;;;;;;;;;;1.58;74.14;102689.13;1904662;74;21433;-76
2021/03/31 02:35:44;;;;;;;;;;;;;;;1.59;74.06;102689.16;1904265;75;20272;-77
2021/03/31 02:38:16;;;;;;;;;;;;;;;1.59;74.06;102690.43;1903852;75;20396;-76
2021/03/31 02:40:46;;;;;;;;;;;;;;;1.62;73.92;102690.00;1903329;74;20734;-75
2021/03/31 02:43:15;;;;;;;;;;;;;;;1.62;73.83;102686.16;1903431;74;20323;-75
2021/03/31 02:45:45;;;;;;;;;;;;;;;1.63;73.78;102689.16;1903409;75;21174;-75
2021/03/31 02:48:15;;;;;;;;;;;;;;;1.62;73.78;102681.91;1903329;75;20157;-75
2021/03/31 02:50:43;;;;;;;;;;;;;;;1.64;73.87;102687.01;1903884;74;20180;-74
2021/03/31 02:53:12;;;;;;;;;;;;;;;1.65;74.44;102681.91;1903823;75;20295;-75
2021/03/31 02:55:41;;;;;;;;;;;;;;;1.67;74.58;102687.02;1889233;75;20188;-74
2021/03/31 02:58:10;;;;;;;;;;;;;;;1.67;74.66;102684.04;1903581;75;21316;-74
2021/03/31 03:00:39;;;;;;;;;;;;;;;1.65;74.41;102681.05;1903567;75;20247;-74
2021/03/31 03:03:07;;;;;;;;;;;;;;;1.63;74.47;102684.05;1902924;75;20184;-75
2021/03/31 03:05:35;;;;;;;;;;;;;;;1.58;74.49;102687.44;1902904;74;20565;-76
2021/03/31 03:08:06;;;;;;;;;;;;;;;1.56;74.70;102690.84;1903305;75;20244;-75
2021/03/31 03:10:33;;;;;;;;;;;;;;;1.53;74.79;102686.55;1902955;74;21866;-75
2021/03/31 03:13:02;;;;;;;;;;;;;;;1.52;74.85;102687.41;1903068;74;20185;-75
2021/03/31 03:15:32;;;;;;;;;;;;;;;1.54;75.06;102689.97;1903718;75;20228;-74
2021/03/31 03:18:02;;;;;;;;;;;;;;;1.54;74.60;102687.41;1903456;74;20213;-73
2021/03/31 03:20:29;;;;;;;;;;;;;;;1.53;74.36;102689.55;1903446;74;20268;-74
2021/03/31 03:22:57;;;;;;;;;;;;;;;1.53;74.02;102689.11;1903249;74;21319;-75
2021/03/31 03:25:26;;;;;;;;;;;;;;;1.54;73.70;102689.55;1903195;75;20185;-74
2021/03/31 03:27:55;;;;;;;;;;;;;;;1.52;73.71;102684.00;1902860;74;20288;-75
2021/03/31 03:30:24;;;;;;;;;;;;;;;1.48;74.05;102678.44;1903250;74;20244;-74
2021/03/31 03:32:53;;;;;;;;;;;;;;;1.46;74.13;102687.40;1903066;74;20240;-74
2021/03/31 03:35:22;;;;;;;;;;;;;;;1.47;74.19;102686.95;1903284;74;21241;-75
2021/03/31 03:37:51;;;;;;;;;;;;;;;1.49;73.64;102682.30;1902718;74;20574;-75
2021/03/31 03:40:22;;;;;;;;;;;;;;;1.53;73.04;102687.83;1902985;75;20272;-75
2021/03/31 03:42:51;;;;;;;;;;;;;;;1.57;72.56;102685.72;1903692;75;20220;-75
2021/03/31 03:45:23;;;;;;;;;;;;;;;1.59;72.24;102686.59;1903329;75;20332;-74
2021/03/31 03:47:51;;;;;;;;;;;;;;;1.65;72.02;102688.73;1903331;74;21183;-74
2021/03/31 03:50:19;;;;;;;;;;;;;;;1.65;72.22;102685.75;1903298;75;20185;-74
2021/03/31 03:52:49;;;;;;;;;;;;;;;1.63;72.46;102691.72;1902906;74;20276;-75
2021/03/31 03:55:21;;;;;;;;;;;;;;;1.60;72.85;102681.03;1903277;74;20803;-75
2021/03/31 03:57:50;;;;;;;;;;;;;;;1.58;72.68;102684.02;1902734;75;20209;-75
2021/03/31 04:00:20;;;;;;;;;;;;;;;1.54;72.83;102689.97;1903047;75;21126;-75
2021/03/31 04:02:53;;;;;;;;;;;;;;;1.52;73.12;102687.84;1902825;74;20204;-75
2021/03/31 04:05:21;;;;;;;;;;;;;;;1.52;73.22;102689.98;1903143;74;20240;-74
2021/03/31 04:07:49;;;;;;;;;;;;;;;1.52;73.04;102688.70;1903357;75;20130;-74
2021/03/31 04:10:18;;;;;;;;;;;;;;;1.54;72.97;102688.69;1903364;74;20241;-74
2021/03/31 04:12:48;;;;;;;;;;;;;;;1.59;72.92;102692.13;1903162;75;20225;-73
2021/03/31 04:15:16;;;;;;;;;;;;;;;1.71;72.42;102693.44;1902893;74;20663;-74
2021/03/31 04:17:44;;;;;;;;;;;;;;;1.76;71.97;102687.03;1916991;74;20292;-74
2021/03/31 04:20:14;;;;;;;;;;;;;;;1.81;71.89;102687.92;1902675;74;20295;-75
2021/03/31 04:22:45;;;;;;;;;;;;;;;1.84;71.81;102691.77;1903019;75;20546;-75
2021/03/31 04:25:15;;;;;;;;;;;;;;;1.86;71.81;102692.19;1902596;74;21029;-74
2021/03/31 04:27:45;;;;;;;;;;;;;;;1.91;71.94;102687.09;1902610;74;20224;-74
2021/03/31 04:30:15;;;;;;;;;;;;;;;1.95;71.49;102688.78;1903157;75;20205;-74
2021/03/31 04:32:44;;;;;;;;;;;;;;;2.00;71.11;102689.66;1903377;74;20268;-74
2021/03/31 04:35:12;;;;;;;;;;;;;;;2.03;70.78;102692.23;1903197;75;20213;-75
2021/03/31 04:37:41;;;;;;;;;;;;;;;2.05;70.62;102693.08;1902924;74;21623;-75
2021/03/31 04:40:12;;;;;;;;;;;;;;;2.07;70.50;102692.67;1903206;75;20185;-75
2021/03/31 04:42:40;;;;;;;;;;;;;;;2.11;70.33;102699.48;1917093;74;20285;-75
2021/03/31 04:45:10;;;;;;;;;;;;;;;2.12;69.97;102699.50;1903367;74;20550;-74
2021/03/31 04:47:38;;;;;;;;;;;;;;;2.14;69.48;102691.80;1903265;74;20241;-76
2021/03/31 04:50:07;;;;;;;;;;;;;;;2.16;69.30;102693.09;1903063;74;21180;-76
2021/03/31 04:52:38;;;;;;;;;;;;;;;2.17;69.04;102686.68;1903378;75;20173;-75
2021/03/31 04:55:08;;;;;;;;;;;;;;;2.20;69.52;102692.26;1902997;74;20276;-75
2021/03/31 04:57:35;;;;;;;;;;;;;;;2.23;69.74;102687.99;1903058;75;20564;-75
2021/03/31 05:00:05;;;;;;;;;;;;;;;2.28;69.29;102691.40;1903332;74;20280;-76
2021/03/31 05:02:33;;;;;;;;;;;;;;;2.32;68.92;102692.26;1903155;75;21336;-76
2021/03/31 05:05:00;;;;;;;;;;;;;;;2.37;68.28;102684.13;1903056;75;20165;-74
2021/03/31 05:07:29;;;;;;;;;;;;;;;2.43;67.99;102690.11;1902866;74;20273;-75
2021/03/31 05:09:57;;;;;;;;;;;;;;;2.49;67.71;102683.70;1902973;74;20554;-75
2021/03/31 05:12:25;;;;;;;;;;;;;;;2.56;67.40;102689.67;1902984;75;20577;-76
2021/03/31 05:14:56;;;;;;;;;;;;;;;2.62;67.20;102686.69;1902816;75;20200;-76
2021/03/31 05:17:25;;;;;;;;;;;;;;;2.70;67.08;102684.13;1902997;75;20235;-76
2021/03/31 05:19:53;;;;;;;;;;;;;;;2.77;66.96;102685.83;1903181;74;20157;-77
2021/03/31 05:22:21;;;;;;;;;;;;;;;2.84;66.54;102679.80;1903147;75;20173;-75
2021/03/31 05:24:49;;;;;;;;;;;;;;;2.90;66.30;102678.96;1903198;74;20324;-75
2021/03/31 05:27:17;;;;;;;;;;;;;;;2.97;66.14;102684.48;1903055;74;21346;-75
2021/03/31 05:29:47;;;;;;;;;;;;;;;3.03;65.93;102674.23;1902767;75;20218;-76
2021/03/31 05:32:14;;;;;;;;;;;;;;;3.07;65.86;102676.77;1902669;74;20594;-75
2021/03/31 05:34:42;;;;;;;;;;;;;;;3.14;65.95;102680.16;1902843;75;20307;-74
2021/03/31 05:37:12;;;;;;;;;;;;;;;3.24;65.83;102673.29;1902652;75;20201;-75
2021/03/31 05:39:43;;;;;;;;;;;;;;;3.35;65.68;102677.51;1903033;74;20700;-74
2021/03/31 05:42:12;;;;;;;;;;;;;;;3.44;65.50;102673.65;1902970;75;20618;-75
2021/03/31 05:44:41;;;;;;;;;;;;;;;3.52;65.31;102677.02;1903142;75;20237;-75
2021/03/31 05:47:12;;;;;;;;;;;;;;;3.59;65.16;102668.42;1902879;75;20241;-75
2021/03/31 05:49:39;;;;;;;;;;;;;;;3.72;64.84;102676.91;1903050;75;20292;-76
2021/03/31 05:52:11;;;;;;;;;;;;;;;3.82;64.52;102670.87;1903441;74;22194;-75
2021/03/31 05:54:39;;;;;;;;;;;;;;;3.94;64.18;102675.92;1904313;74;20289;-75
2021/03/31 05:57:08;;;;;;;;;;;;;;;4.02;63.93;102667.72;1933584;74;20267;-75
2021/03/31 05:59:37;;;;;;;;;;;;;;;4.10;63.83;102672.81;1939206;74;20618;-75
2021/03/31 06:02:05;;;;;;;;;;;;;;;4.16;63.74;102669.77;1939105;74;20284;-76
2021/03/31 06:04:33;;;;;;;;;;;;;;;4.23;63.49;102666.30;1938539;74;21128;-75
2021/03/31 06:07:03;;;;;;;;;;;;;;;4.29;63.47;102670.52;1938879;74;20276;-76
2021/03/31 06:09:38;;;;;;;;;;;;;;;4.35;63.29;102667.90;1938862;74;20306;-76
2021/03/31 06:12:08;;;;;;;;;;;;;;;4.43;63.07;102664.84;1935524;74;20335;-76
2021/03/31 06:14:37;;;;;;;;;;;;;;;4.49;63.19;102663.94;1939676;74;20287;-76
2021/03/31 06:17:13;;;;;;;;;;;;;;;4.53;63.03;102663.87;1935936;74;20267;-77
2021/03/31 06:19:44;;;;;;;;;;;;;;;4.59;62.90;102664.27;1939177;74;20191;-75
2021/03/31 06:25:14;;;;;;;;;;;;;;;4.80;62.73;102655.91;1938354;74;20274;-77
2021/03/31 06:27:41;;;;;;;;;;;;;;;4.93;62.52;102656.63;1939273;74;20300;-76
2021/03/31 06:30:14;;;;;;;;;;;;;;;5.03;62.42;102658.23;1936012;74;22087;-77
2021/03/31 06:32:42;;;;;;;;;;;;;;;5.13;62.42;102656.41;1930374;74;20984;-77
2021/03/31 06:35:17;;;;;;;;;;;;;;;5.23;62.54;102655.42;1935684;74;20227;-77
2021/03/31 06:37:47;;;;;;;;;;;;;;;5.34;62.74;102661.28;1935456;74;20261;-77
2021/03/31 06:40:31;;;;;;;;;;;;;;;5.46;62.82;102658.97;1935699;73;20677;-77
2021/03/31 06:43:12;;;;;;;;;;;;;;;5.58;62.73;102657.55;1935287;74;21187;-76
2021/03/31 06:45:49;;;;;;;;;;;;;;;5.72;62.74;102653.89;1935198;73;20272;-76
2021/03/31 06:48:11;;;;;;;;;;;;;;;5.87;62.37;102656.73;1934097;74;20189;-77
2021/03/31 06:50:43;;;;;;;;;;;;;;;6.00;62.25;102659.98;1902807;74;20271;-77
2021/03/31 06:53:12;;;;;;;;;;;;;;;6.11;62.07;102652.48;1935385;73;20627;-79
2021/03/31 06:55:40;;;;;;;;;;;;;;;6.25;61.63;102650.98;1936013;73;21842;-80
2021/03/31 06:58:09;;;;;;;;;;;;;;;6.39;61.03;102648.57;1935446;73;20231;-76
2021/03/31 07:00:38;;;;;;;;;;;;;;;6.52;61.21;102647.06;1935131;74;20181;-76
2021/03/31 07:03:09;;;;;;;;;;;;;;;6.64;61.29;102643.82;1935689;74;20287;-76
2021/03/31 07:05:38;;;;;;;;;;;;;;;6.73;61.11;102639.78;1935368;74;20300;-77
2021/03/31 07:08:11;;;;;;;;;;;;;;;6.84;61.04;102640.88;1935564;73;21178;-76
2021/03/31 07:10:47;;;;;;;;;;;;;;;6.94;61.02;102635.95;1936104;73;20201;-76
2021/03/31 07:13:31;;;;;;;;;;;;;;;7.04;61.61;102636.63;1935530;74;20193;-76
2021/03/31 07:16:00;;;;;;;;;;;;;;;7.19;61.64;102638.45;1934574;73;20287;-76
2021/03/31 07:18:33;;;;;;;;;;;;;;;7.30;61.67;102635.66;1934686;74;20284;-77
2021/03/31 07:21:03;;;;;;;;;;;;;;;7.45;62.00;102641.34;1935316;73;21189;-76
2021/03/31 07:23:30;;;;;;;;;;;;;;;7.68;61.80;102630.50;1935630;74;20534;-76
2021/03/31 07:25:58;;;;;;;;;;;;;;;7.82;61.49;102634.89;1935072;74;20311;-75
2021/03/31 07:28:29;;;;;;;;;;;;;;;8.01;60.75;102631.90;1934890;74;20291;-75
2021/03/31 07:30:58;;;;;;;;;;;;;;;8.13;60.22;102624.69;1935282;74;20280;-76
2021/03/31 07:33:27;;;;;;;;;;;;;;;8.24;59.99;102629.58;1934891;74;21239;-76
2021/03/31 07:35:55;;;;;;;;;;;;;;;8.38;59.80;102624.95;1901891;74;20300;-75
2021/03/31 07:38:23;;;;;;;;;;;;;;;8.50;59.83;102624.62;1934787;73;20188;-76
2021/03/31 07:40:52;;;;;;;;;;;;;;;8.61;59.10;102621.77;1934357;74;20264;-75
2021/03/31 07:43:25;;;;;;;;;;;;;;;8.69;59.04;102615.92;1934948;74;20354;-74
2021/03/31 07:45:56;;;;;;;;;;;;;;;8.74;58.98;102618.78;1935298;74;22224;-76
2021/03/31 07:48:24;;;;;;;;;;;;;;;8.86;58.27;102617.17;1935769;73;20554;-74
2021/03/31 07:50:53;;;;;;;;;;;;;;;9.00;57.82;102616.77;1935234;74;20267;-78
2021/03/31 07:53:23;;;;;;;;;;;;;;;9.10;57.83;102609.58;1935087;74;20268;-74
2021/03/31 07:55:56;;;;;;;;;;;;;;;9.15;57.97;102604.70;1935471;74;20295;-75
2021/03/31 07:58:24;;;;;;;;;;;;;;;9.22;58.10;102600.19;1935008;74;21193;-79
2021/03/31 08:00:58;;;;;;;;;;;;;;;9.35;56.14;102597.16;1935103;74;20579;-76
2021/03/31 08:03:32;;;;;;;;;;;;;;;9.47;55.31;102595.52;1935356;74;20271;-75
2021/03/31 08:06:07;;;;;;;;;;;;;;;9.55;55.28;102596.55;1934428;74;20423;-78
2021/03/31 08:08:49;;;;;;;;;;;;;;;9.63;55.29;102590.70;1934496;74;20326;-75
2021/03/31 08:11:43;;;;;;;;;;;;;;;9.75;55.22;102589.02;1906413;74;21166;-75
2021/03/31 08:14:14;;;;;;;;;;;;;;;9.95;54.96;102571.52;1901180;75;20565;-77
2021/03/31 08:16:44;;;;;;;;;;;;;;;10.11;54.64;102576.59;1901147;74;20303;-77
2021/03/31 08:19:15;;;;;;;;;;;;;;;10.21;54.11;102581.88;1900862;74;20511;-75
2021/03/31 08:21:44;;;;;;;;;;;;;;;10.30;52.98;102570.36;1920226;73;20270;-74
2021/03/31 08:24:12;;;;;;;;;;;;;;;10.36;53.00;102564.50;1899773;74;21192;-73
2021/03/31 08:26:45;;;;;;;;;;;;;;;10.41;52.68;102562.58;1901039;75;20351;-75
2021/03/31 08:29:22;;;;;;;;;;;;;;;10.46;52.69;102560.69;1901959;74;20304;-79
2021/03/31 08:31:59;;;;;;;;;;;;;;;10.54;50.43;102555.20;1903126;75;20597;-77
2021/03/31 08:34:31;;;;;;;;;;;;;;;10.61;49.24;102550.20;1909777;74;20278;-76
2021/03/31 08:37:01;;;;;;;;;;;;;;;10.67;49.83;102547.38;1902753;75;22117;-76
2021/03/31 08:39:31;;;;;;;;;;;;;;;10.78;49.61;102542.66;1901524;75;20302;-74
2021/03/31 08:42:20;;;;;;;;;;;;;;;10.89;48.95;102533.14;1902182;75;20219;-76
2021/03/31 08:44:57;;;;;;;;;;;;;;;11.04;48.96;102533.89;1902179;75;20314;-75
2021/03/31 08:47:26;;;;;;;;;;;;;;;11.12;48.33;102532.67;1902317;75;20289;-76
2021/03/31 08:50:02;;;;;;;;;;;;;;;11.20;47.89;102515.95;1902664;75;21216;-78
2021/03/31 08:52:34;;;;;;;;;;;;;;;11.30;47.44;102517.25;1901882;75;20302;-77
2021/03/31 08:55:05;;;;;;;;;;;;;;;11.40;47.22;102515.98;1902034;75;20274;-75
2021/03/31 08:57:36;;;;;;;;;;;;;;;11.49;44.17;102511.27;1902048;75;20304;-76
2021/03/31 09:00:09;;;;;;;;;;;;;;;11.61;43.85;102513.84;1903359;75;20282;-75
2021/03/31 09:02:41;;;;;;;;;;;;;;;11.67;43.06;102510.53;1902236;75;21186;-74
2021/03/31 09:05:14;;;;;;;;;;;;;;;11.72;43.01;102505.16;1902767;75;20285;-75
2021/03/31 09:07:44;;;;;;;;;;;;;;;11.79;43.25;102509.66;1903205;75;20195;-75
2021/03/31 09:10:12;;;;;;;;;;;;;;;11.90;44.17;102503.08;1902854;75;20218;-75
2021/03/31 09:12:40;;;;;;;;;;;;;;;12.06;43.34;102508.02;1902889;75;20298;-76
2021/03/31 09:15:10;;;;;;;;;;;;;;;12.20;42.93;102497.02;1903906;75;22202;-78
2021/03/31 09:17:40;;;;;;;;;;;;;;;12.33;41.96;102494.73;1903855;75;20580;-77
2021/03/31 09:20:09;;;;;;;;;;;;;;;12.36;41.08;102489.38;1903133;75;20572;-75
2021/03/31 09:22:37;;;;;;;;;;;;;;;12.41;42.04;102479.14;1902426;75;20242;-75
2021/03/31 09:25:10;;;;;;;;;;;;;;;12.54;41.78;102476.86;1898853;75;36063;-75
2021/03/31 09:27:40;;;;;;;;;;;;;;;12.77;41.34;102471.88;1899160;75;21198;-74
2021/03/31 09:30:14;;;;;;;;;;;;;;;13.02;40.98;102478.92;1902700;75;20140;-75
2021/03/31 09:32:54;;;;;;;;;;;;;;;13.21;40.78;102470.65;1900876;75;20164;-77
2021/03/31 09:35:22;;;;;;;;;;;;;;;13.45;39.79;102467.31;1900600;75;20635;-76
2021/03/31 09:37:54;;;;;;;;;;;;;;;13.65;38.13;102457.59;1900033;75;20258;-74
2021/03/31 09:40:28;;;;;;;;;;;;;;;13.81;38.09;102455.50;1895810;75;21186;-76
2021/03/31 09:42:58;;;;;;;;;;;;;;;13.93;38.37;102459.63;1899555;75;20175;-76
2021/03/31 09:45:30;;;;;;;;;;;;;;;14.07;38.12;102457.63;1898623;75;20277;-76
2021/03/31 09:47:58;;;;;;;;;;;;;;;14.25;37.57;102459.26;1898340;75;20263;-75
2021/03/31 09:50:28;;;;;;;;;;;;;;;14.58;37.54;102456.66;1898390;75;20251;-75
2021/03/31 09:53:01;;;;;;;;;;;;;;;15.46;35.82;102448.58;1898450;75;21220;-75
2021/03/31 09:55:30;;;;;;;;;;;;;;;16.01;33.70;102448.80;1899262;75;20296;-83
2021/03/31 09:57:58;;;;;;;;;;;;;;;15.87;33.31;102450.94;1856636;75;20309;-75
2021/03/31 10:00:26;;;;;;;;;;;;;;;15.51;33.54;102441.81;1900432;75;20708;-78
2021/03/31 10:02:55;;;;;;;;;;;;;;;15.24;33.45;102450.74;1900452;75;20663;-80
2021/03/31 10:05:26;;;;;;;;;;;;;;;15.14;33.95;102442.58;1901015;75;21147;-79
2021/03/31 10:08:21;;;;;;;;;;;;;;;14.98;33.17;102439.14;1899816;73;20206;-76
2021/03/31 10:10:55;;;;;;;;;;;;;;;14.90;33.70;102433.48;1903622;73;20280;-72
2021/03/31 10:13:27;;;;;;;;;;;;;;;16.13;33.01;102430.19;1919161;73;20677;-78
2021/03/31 10:16:00;;;;;;;;;;;;;;;17.63;30.86;102423.94;1881905;75;20268;-75
2021/03/31 10:18:37;;;;;;;;;;;;;;;19.10;27.72;102419.16;1901966;74;20585;-76
2021/03/31 10:21:12;;;;;;;;;;;;;;;20.72;27.02;102417.89;1901539;75;20557;-75
2021/03/31 10:23:48;;;;;;;;;;;;;;;21.56;24.16;102403.37;1901399;75;20272;-75
2021/03/31 10:26:28;;;;;;;;;;;;;;;21.69;24.16;102407.14;1899259;75;20712;-74
2021/03/31 10:29:00;;;;;;;;;;;;;;;22.34;23.67;102404.07;1901635;74;20261;-76
2021/03/31 10:31:37;;;;;;;;;;;;;;;23.22;22.60;102401.41;1900740;74;20268;-74
2021/03/31 10:34:07;;;;;;;;;;;;;;;23.79;22.06;102393.83;1898585;75;20167;-76
2021/03/31 10:36:46;;;;;;;;;;;;;;;23.62;21.74;102387.46;1898996;75;20194;-79
2021/03/31 10:48:13;;;;;;;;;;;;;;;20.77;24.84;102380.59;1918784;74;20224;-73
2021/03/31 10:50:44;;;;;;;;;;;;;;;22.17;23.48;102369.52;1934632;74;20279;-76
2021/03/31 10:53:12;;;;;;;;;;;;;;;22.16;22.92;102364.70;1903633;74;20270;-77
2021/03/31 10:55:43;;;;;;;;;;;;;;;21.77;23.05;102363.70;1899225;75;20274;-74
2021/03/31 10:58:12;;;;;;;;;;;;;;;21.30;23.47;102363.80;1898677;75;21171;-74
2021/03/31 11:00:40;;;;;;;;;;;;;;;21.53;24.65;102360.53;1898537;75;20270;-73
2021/03/31 11:03:10;;;;;;;;;;;;;;;21.57;24.12;102353.52;1894516;75;20645;-76
2021/03/31 11:05:39;;;;;;;;;;;;;;;21.05;23.90;102354.44;1898604;75;20611;-74
2021/03/31 11:08:10;;;;;;;;;;;;;;;20.49;24.83;102358.23;1899243;73;20483;-74
2021/03/31 11:10:39;;;;;;;;;;;;;;;20.27;25.47;102355.18;1938386;73;20257;-77
2021/03/31 11:13:07;;;;;;;;;;;;;;;20.24;25.42;102348.80;1900688;74;20294;-76
2021/03/31 11:15:37;;;;;;;;;;;;;;;20.02;24.90;102348.36;1898497;75;20297;-79
2021/03/31 11:18:19;;;;;;;;;;;;;;;20.10;25.30;102340.33;1898513;75;20190;-75
2021/03/31 11:21:03;;;;;;;;;;;;;;;20.03;24.71;102336.02;1897781;75;20568;-77
2021/03/31 11:26:06;;;;;;;;;;;;;;;19.88;26.36;102332.78;1898676;75;20310;-75
2021/03/31 11:28:36;;;;;;;;;;;;;;;20.77;25.21;102320.72;1898541;75;20229;-73
2021/03/31 11:31:05;;;;;;;;;;;;;;;21.90;24.25;102310.16;1898772;75;20262;-80
2021/03/31 11:33:37;;;;;;;;;;;;;;;22.51;21.51;102311.30;1899034;75;20278;-76
2021/03/31 11:36:06;;;;;;;;;;;;;;;21.92;22.17;102308.20;1900580;74;21778;-76
2021/03/31 11:38:35;;;;;;;;;;;;;;;21.58;22.89;102298.88;1901623;74;20691;-75
2021/03/31 11:41:07;;;;;;;;;;;;;;;21.39;23.29;102296.98;1901739;75;20272;-77
2021/03/31 11:43:38;;;;;;;;;;;;;;;21.17;23.98;102296.30;1905500;73;20302;-73
2021/03/31 11:46:08;;;;;;;;;;;;;;;20.77;23.77;102296.97;1904409;73;20264;-77
2021/03/31 11:48:44;;;;;;;;;;;;;;;20.09;24.51;102307.86;1936221;73;21177;-75
2021/03/31 11:51:12;;;;;;;;;;;;;;;19.42;25.40;102302.62;1952021;73;21029;-77
2021/03/31 11:53:48;;;;;;;;;;;;;;;18.95;26.19;102293.05;1903492;73;20587;-74
2021/03/31 11:56:15;;;;;;;;;;;;;;;18.71;26.99;102290.10;1899789;75;20283;-74
2021/03/31 11:58:47;;;;;;;;;;;;;;;18.74;26.92;102286.77;1900087;75;20255;-76
2021/03/31 12:01:15;;;;;;;;;;;;;;;18.81;26.86;102280.58;1900251;75;22283;-75
2021/03/31 12:03:46;;;;;;;;;;;;;;;18.94;26.65;102276.92;1939597;73;20301;-74
2021/03/31 12:06:14;;;;;;;;;;;;;;;18.75;26.04;102275.30;1912759;73;20122;-75
2021/03/31 12:08:48;;;;;;;;;;;;;;;18.48;26.35;102268.95;1902953;74;20215;-73
2021/03/31 12:11:13;;;;;;;;;;;;;;;18.37;26.70;102257.56;1923426;73;20285;-79
2021/03/31 12:13:43;;;;;;;;;;;;;;;18.08;26.16;102264.09;1902828;74;22122;-80
2021/03/31 12:16:11;;;;;;;;;;;;;;;17.58;27.54;102260.63;1903009;73;20288;-76
2021/03/31 12:18:38;;;;;;;;;;;;;;;17.17;28.21;102260.00;1901035;73;20203;-75
2021/03/31 12:21:09;;;;;;;;;;;;;;;16.90;29.44;102253.55;1901538;73;20204;-75
2021/03/31 12:23:37;;;;;;;;;;;;;;;16.76;29.80;102246.59;1916461;74;20229;-82
2021/03/31 12:26:10;;;;;;;;;;;;;;;16.73;30.29;102244.64;1926890;74;21230;-75
2021/03/31 12:28:39;;;;;;;;;;;;;;;16.57;29.74;102240.05;1902747;74;20213;-76
2021/03/31 12:31:08;;;;;;;;;;;;;;;16.45;30.67;102237.74;1902685;74;20256;-75
2021/03/31 12:33:36;;;;;;;;;;;;;;;16.40;31.14;102235.41;1906668;74;20485;-74
2021/03/31 12:36:05;;;;;;;;;;;;;;;16.32;31.56;102227.23;1900279;75;20544;-75
2021/03/31 12:38:34;;;;;;;;;;;;;;;16.36;31.89;102225.25;1900036;75;21241;-75
2021/03/31 12:41:03;;;;;;;;;;;;;;;16.43;31.12;102222.60;1900207;75;20287;-78
2021/03/31 12:43:31;;;;;;;;;;;;;;;16.51;30.81;102216.84;1899973;75;20215;-75
2021/03/31 12:46:00;;;;;;;;;;;;;;;16.59;30.87;102211.98;1900140;75;20219;-77
2021/03/31 12:48:28;;;;;;;;;;;;;;;16.73;30.80;102208.78;1900245;75;20274;-77
2021/03/31 12:51:07;;;;;;;;;;;;;;;16.89;30.89;102204.66;1900484;75;21803;-75
2021/03/31 12:53:41;;;;;;;;;;;;;;;17.06;30.60;102203.05;1900325;75;20508;-75
2021/03/31 12:56:09;;;;;;;;;;;;;;;17.20;29.85;102198.16;1900018;75;20207;-76
2021/03/31 12:58:42;;;;;;;;;;;;;;;17.25;29.55;102195.58;1900072;75;20223;-78
2021/03/31 13:01:21;;;;;;;;;;;;;;;17.15;29.72;102184.05;1898023;75;20207;-79
2021/03/31 13:03:38;;;;;;;;;;;;;;;17.05;30.20;102186.93;1890081;75;21962;-76
2021/03/31 13:06:08;;;;;;;;;;;;;;;17.00;30.18;102179.86;1894436;75;20564;-80
2021/03/31 13:08:39;;;;;;;;;;;;;;;17.00;29.97;102180.33;1895091;75;20128;-78
2021/03/31 13:11:11;;;;;;;;;;;;;;;16.92;29.65;102183.00;1895638;75;20219;-81
2021/03/31 13:16:33;;;;;;;;;;;;;;;16.76;30.27;102169.25;1899914;75;21186;-78
2021/03/31 13:32:42;;;;;;;;;;;;;;;17.42;28.42;102154.53;1889617;75;20229;-80